Time;durP1;ratioP1;P1;durP2;ratioP2;P2;SDS_P1;SDS_P2;PMS_P1;PMS_P2;Temp;Humidity;BMP_temperature;BMP_pressure;BME280_temperature;BME280_humidity;BME280_pressure;Samples;Min_cycle;Max_cycle;Signal;HPM_P1;HPM_P2
2021/06/18 00:01:58;;;;;;;5.53;1.85;;;22.40;65.60;;;;;;5019342;28;20037;-41
2021/06/18 00:04:24;;;;;;;5.28;2.00;;;22.40;65.70;;;;;;5019204;28;20038;-41
2021/06/18 00:06:50;;;;;;;4.90;2.20;;;22.40;65.70;;;;;;5019112;28;20026;-41
2021/06/18 00:09:15;;;;;;;6.50;1.95;;;22.40;65.80;;;;;;5019247;28;20037;-41
2021/06/18 00:11:41;;;;;;;4.68;2.13;;;22.30;65.80;;;;;;5019141;28;20030;-41
2021/06/18 00:14:07;;;;;;;5.60;2.30;;;22.30;65.80;;;;;;5019039;28;20440;-42
2021/06/18 00:16:33;;;;;;;6.00;2.30;;;22.30;65.70;;;;;;5018902;28;20054;-40
2021/06/18 00:19:00;;;;;;;3.05;1.90;;;22.30;65.90;;;;;;5018802;28;20032;-42
2021/06/18 00:21:25;;;;;;;4.47;1.88;;;22.30;65.90;;;;;;5018709;28;20125;-41
2021/06/18 00:23:51;;;;;;;10.93;2.20;;;22.30;65.70;;;;;;5018711;28;20100;-42
2021/06/18 00:26:17;;;;;;;5.15;1.98;;;22.30;65.70;;;;;;5019130;28;20109;-41
2021/06/18 00:28:42;;;;;;;7.88;2.33;;;22.30;65.60;;;;;;5016946;28;20037;-41
2021/06/18 00:31:09;;;;;;;3.50;2.30;;;22.40;65.60;;;;;;5018572;28;20042;-41
2021/06/18 00:33:35;;;;;;;8.25;2.30;;;22.30;65.50;;;;;;5017899;28;20440;-40
2021/06/18 00:36:01;;;;;;;4.28;2.00;;;22.30;65.30;;;;;;5018396;28;20033;-41
2021/06/18 00:38:26;;;;;;;5.80;2.13;;;22.30;65.20;;;;;;5018129;28;20026;-41
2021/06/18 00:40:52;;;;;;;5.22;2.17;;;22.30;65.20;;;;;;5018579;28;20041;-41
2021/06/18 00:43:18;;;;;;;3.30;1.88;;;22.30;65.30;;;;;;5017927;28;20053;-40
2021/06/18 00:45:44;;;;;;;5.90;2.63;;;22.30;65.50;;;;;;5018636;28;20038;-40
2021/06/18 00:48:11;;;;;;;4.22;2.28;;;22.30;65.40;;;;;;5018098;28;20029;-42
2021/06/18 00:50:37;;;;;;;4.47;2.20;;;22.30;65.30;;;;;;5018289;28;20125;-40
2021/06/18 00:53:03;;;;;;;6.78;2.10;;;22.30;65.30;;;;;;5018193;28;20033;-41
2021/06/18 00:55:29;;;;;;;5.22;2.30;;;22.30;65.40;;;;;;5018198;28;20057;-41
2021/06/18 00:57:56;;;;;;;4.95;1.98;;;22.20;65.30;;;;;;5017561;28;20029;-40
2021/06/18 01:00:22;;;;;;;6.80;2.22;;;22.30;65.30;;;;;;5018099;28;20026;-40
2021/06/18 01:02:48;;;;;;;4.70;2.15;;;22.30;65.40;;;;;;5018292;28;20032;-41
2021/06/18 01:05:15;;;;;;;3.28;2.13;;;22.20;65.10;;;;;;5018038;28;20395;-40
2021/06/18 01:07:52;;;;;;;5.38;2.20;;;22.20;65.20;;;;;;5017970;28;20022;-41
2021/06/18 01:10:41;;;;;;;7.25;2.45;;;22.20;65.30;;;;;;5017991;28;20423;-40
2021/06/18 01:13:35;;;;;;;4.65;2.22;;;22.20;65.40;;;;;;5017463;28;20117;-41
2021/06/18 01:16:16;;;;;;;5.57;2.22;;;22.20;65.30;;;;;;5017863;28;20042;-41
2021/06/18 01:18:52;;;;;;;5.32;2.00;;;22.10;65.20;;;;;;5017399;28;20026;-41
2021/06/18 01:21:28;;;;;;;4.25;2.20;;;22.10;65.40;;;;;;5017887;28;20140;-40
2021/06/18 01:24:03;;;;;;;7.10;2.25;;;22.00;65.50;;;;;;5017541;28;20026;-41
2021/06/18 01:26:41;;;;;;;3.25;2.20;;;22.00;65.50;;;;;;5017776;28;20124;-43
2021/06/18 01:29:07;;;;;;;4.85;2.13;;;22.00;65.60;;;;;;5017658;28;20022;-41
2021/06/18 01:31:47;;;;;;;5.32;2.50;;;21.90;65.40;;;;;;5017529;28;20026;-40
2021/06/18 01:34:15;;;;;;;3.65;2.03;;;22.00;65.40;;;;;;5017530;28;20318;-41
2021/06/18 01:36:44;;;;;;;5.03;2.42;;;21.90;65.30;;;;;;5017233;28;20042;-40
2021/06/18 01:39:11;;;;;;;5.63;2.17;;;21.90;65.40;;;;;;5016811;28;20112;-41
2021/06/18 01:41:38;;;;;;;3.85;2.17;;;21.90;65.40;;;;;;5017312;28;20040;-40
2021/06/18 01:44:05;;;;;;;3.30;1.88;;;21.90;65.60;;;;;;5017222;28;20429;-40
2021/06/18 01:46:34;;;;;;;3.47;2.03;;;21.90;65.60;;;;;;5017128;28;20040;-40
2021/06/18 01:49:09;;;;;;;6.50;2.20;;;21.80;65.60;;;;;;5016973;28;20077;-41
2021/06/18 01:51:37;;;;;;;8.23;2.10;;;21.80;65.50;;;;;;5017169;28;20345;-40
2021/06/18 01:54:04;;;;;;;2.50;1.90;;;21.80;65.60;;;;;;5017207;28;20037;-40
2021/06/18 01:56:32;;;;;;;2.50;2.10;;;21.80;65.60;;;;;;5016886;28;20034;-40
2021/06/18 01:59:00;;;;;;;4.88;2.35;;;21.80;65.80;;;;;;5017247;28;20434;-41
2021/06/18 02:01:32;;;;;;;4.75;1.83;;;21.80;65.90;;;;;;5016909;28;20314;-40
2021/06/18 02:03:57;;;;;;;3.92;2.15;;;21.80;65.90;;;;;;5016897;28;20068;-40
2021/06/18 02:06:24;;;;;;;8.30;2.15;;;21.80;65.80;;;;;;5016937;28;20061;-41
2021/06/18 02:08:55;;;;;;;12.30;2.47;;;21.80;65.60;;;;;;5016841;28;20425;-41
2021/06/18 02:11:24;;;;;;;6.75;2.60;;;21.80;65.60;;;;;;5016989;28;20413;-41
2021/06/18 02:13:51;;;;;;;3.85;2.20;;;21.80;65.80;;;;;;5016458;28;20141;-40
2021/06/18 02:16:17;;;;;;;2.42;1.98;;;21.80;65.80;;;;;;5016895;28;20127;-40
2021/06/18 02:18:44;;;;;;;4.10;1.80;;;21.80;65.60;;;;;;5016328;28;20022;-40
2021/06/18 02:21:12;;;;;;;5.32;2.53;;;21.80;65.40;;;;;;5016613;28;20160;-41
2021/06/18 02:23:39;;;;;;;3.05;2.17;;;21.80;65.40;;;;;;5016220;28;20029;-40
2021/06/18 02:26:07;;;;;;;4.13;2.25;;;21.90;65.40;;;;;;5016786;28;20330;-41
2021/06/18 02:28:33;;;;;;;3.47;2.17;;;21.90;65.50;;;;;;5016102;28;20018;-41
2021/06/18 02:31:01;;;;;;;4.25;2.58;;;21.80;65.40;;;;;;5016450;28;20042;-41
2021/06/18 02:33:27;;;;;;;6.45;2.42;;;21.80;65.30;;;;;;5016403;28;20440;-40
2021/06/18 02:35:53;;;;;;;4.82;2.60;;;21.80;65.30;;;;;;5016496;28;20034;-40
2021/06/18 02:38:19;;;;;;;3.72;1.80;;;21.80;65.40;;;;;;5016265;28;20030;-40
2021/06/18 02:40:45;;;;;;;3.25;2.08;;;21.90;65.60;;;;;;5016449;28;20087;-40
2021/06/18 02:43:11;;;;;;;3.63;2.20;;;21.80;65.70;;;;;;5015866;28;20061;-40
2021/06/18 02:45:37;;;;;;;7.93;2.55;;;21.80;65.50;;;;;;5016354;28;20091;-40
2021/06/18 02:48:21;;;;;;;6.53;2.67;;;21.90;65.40;;;;;;5016357;28;20030;-40
2021/06/18 02:51:00;;;;;;;15.38;2.80;;;21.90;65.30;;;;;;5015742;28;20041;-40
2021/06/18 02:53:44;;;;;;;3.95;2.20;;;21.90;65.50;;;;;;5016114;28;20353;-40
2021/06/18 02:56:14;;;;;;;4.03;1.90;;;21.90;65.40;;;;;;5016249;28;20430;-40
2021/06/18 02:59:00;;;;;;;;;;;21.80;65.50;;;;;;5016404;28;20118;-41
2021/06/18 03:01:30;;;;;;;7.50;1.90;;;21.80;65.50;;;;;;5012257;28;19909;-40
2021/06/18 03:03:59;;;;;;;4.05;2.10;;;21.80;66.30;;;;;;5015926;28;20041;-40
2021/06/18 03:06:26;;;;;;;4.32;2.00;;;21.80;65.90;;;;;;5016019;28;20033;-42
2021/06/18 03:08:57;;;;;;;9.07;2.40;;;21.80;65.70;;;;;;5016183;28;20034;-41
2021/06/18 03:11:29;;;;;;;10.57;2.40;;;21.90;65.70;;;;;;5016121;28;20080;-40
2021/06/18 03:13:58;;;;;;;7.43;2.28;;;21.80;65.50;;;;;;5016046;28;20418;-40
2021/06/18 03:16:28;;;;;;;3.95;2.00;;;21.80;65.40;;;;;;5015983;28;20034;-40
2021/06/18 03:18:56;;;;;;;3.78;2.20;;;21.80;65.50;;;;;;5015492;28;20026;-40
2021/06/18 03:21:24;;;;;;;7.07;2.40;;;21.80;65.50;;;;;;5016045;28;20116;-40
2021/06/18 03:23:51;;;;;;;6.03;2.40;;;21.90;65.50;;;;;;5015617;28;20038;-41
2021/06/18 03:26:17;;;;;;;3.90;2.40;;;21.90;65.40;;;;;;5016050;28;20123;-40
2021/06/18 03:28:44;;;;;;;3.15;2.08;;;21.90;65.40;;;;;;5015799;28;20473;-40
2021/06/18 03:31:11;;;;;;;8.95;2.65;;;21.90;65.30;;;;;;5016089;28;20049;-40
2021/06/18 03:33:37;;;;;;;3.50;2.03;;;21.90;65.50;;;;;;5015247;28;20062;-40
2021/06/18 03:36:04;;;;;;;7.10;2.70;;;21.90;65.60;;;;;;5015979;28;20125;-40
2021/06/18 03:38:32;;;;;;;4.03;2.33;;;21.90;65.50;;;;;;5015351;28;20034;-40
2021/06/18 03:40:58;;;;;;;6.03;2.50;;;21.90;65.50;;;;;;5015853;28;20440;-41
2021/06/18 03:43:24;;;;;;;3.38;1.85;;;21.90;65.70;;;;;;5015644;28;20072;-40
2021/06/18 03:45:57;;;;;;;3.35;2.15;;;21.90;65.80;;;;;;5015732;28;20042;-40
2021/06/18 03:48:24;;;;;;;5.45;2.42;;;21.90;65.90;;;;;;5015081;28;20045;-40
2021/06/18 03:50:50;;;;;;;6.25;2.30;;;21.90;65.90;;;;;;5015745;28;20038;-40
2021/06/18 03:53:17;;;;;;;5.18;2.30;;;21.90;65.70;;;;;;5015327;28;20129;-41
2021/06/18 03:55:48;;;;;;;5.80;2.53;;;22.00;65.80;;;;;;5015033;28;20095;-40
2021/06/18 03:58:18;;;;;;;4.68;2.42;;;22.00;66.00;;;;;;5015091;28;20052;-40
2021/06/18 04:00:45;;;;;;;4.53;2.25;;;22.00;66.00;;;;;;5015772;28;20548;-41
2021/06/18 04:03:12;;;;;;;5.05;2.40;;;22.00;66.00;;;;;;5017017;28;20088;-41
2021/06/18 04:05:41;;;;;;;4.00;2.28;;;22.00;66.00;;;;;;5019173;28;20113;-40
2021/06/18 04:08:07;;;;;;;3.72;2.20;;;22.00;66.00;;;;;;5018921;28;20030;-41
2021/06/18 04:10:33;;;;;;;5.07;2.45;;;22.10;66.10;;;;;;5018792;28;20313;-40
2021/06/18 04:13:01;;;;;;;5.03;2.50;;;22.10;66.00;;;;;;5018913;28;20037;-40
2021/06/18 04:15:27;;;;;;;3.85;2.22;;;22.10;66.00;;;;;;5018663;28;20034;-41
2021/06/18 04:17:53;;;;;;;19.67;3.20;;;22.20;65.80;;;;;;5018370;28;20072;-40
2021/06/18 04:20:20;;;;;;;13.18;2.80;;;22.20;65.70;;;;;;5018343;28;20061;-40
2021/06/18 04:22:47;;;;;;;11.48;3.08;;;22.20;65.40;;;;;;5018520;28;20117;-40
2021/06/18 04:25:13;;;;;;;5.18;2.90;;;22.30;65.40;;;;;;5018270;28;20030;-40
2021/06/18 04:27:39;;;;;;;18.35;3.10;;;22.30;65.20;;;;;;5018741;28;20028;-40
2021/06/18 04:30:07;;;;;;;5.00;2.30;;;22.30;65.40;;;;;;5018643;28;20326;-41
2021/06/18 04:32:33;;;;;;;6.50;2.40;;;22.30;65.10;;;;;;5018012;28;20038;-40
2021/06/18 04:34:58;;;;;;;5.88;2.47;;;22.30;65.20;;;;;;5018445;28;20279;-40
2021/06/18 04:37:24;;;;;;;6.53;2.40;;;22.30;65.20;;;;;;5017877;28;20411;-40
2021/06/18 04:39:50;;;;;;;4.85;2.00;;;22.40;65.30;;;;;;5018936;28;20113;-40
2021/06/18 04:42:15;;;;;;;4.15;2.20;;;22.40;65.30;;;;;;5018375;28;20296;-40
2021/06/18 04:44:41;;;;;;;9.52;2.60;;;22.40;65.00;;;;;;5018038;28;20407;-41
2021/06/18 04:47:07;;;;;;;10.43;2.55;;;22.40;65.10;;;;;;5017934;28;20041;-41
2021/06/18 04:49:32;;;;;;;8.27;2.95;;;22.40;65.10;;;;;;5018396;28;20030;-41
2021/06/18 04:51:59;;;;;;;5.28;2.22;;;22.40;65.00;;;;;;5017662;28;20307;-39
2021/06/18 04:54:24;;;;;;;6.22;2.67;;;22.50;65.10;;;;;;5017458;28;20045;-39
2021/06/18 04:56:50;;;;;;;4.20;2.50;;;22.50;64.80;;;;;;5032848;28;20026;-38
2021/06/18 04:59:19;;;;;;;4.78;2.40;;;22.60;65.00;;;;;;5017435;28;20058;-39
2021/06/18 05:01:45;;;;;;;19.77;4.05;;;22.60;64.80;;;;;;5017682;28;20033;-39
2021/06/18 05:04:11;;;;;;;6.72;2.70;;;22.70;64.90;;;;;;5017730;28;20104;-39
2021/06/18 05:06:36;;;;;;;8.48;2.47;;;22.70;64.70;;;;;;5017434;28;20415;-38
2021/06/18 05:09:03;;;;;;;6.97;2.40;;;22.70;64.90;;;;;;5017785;28;20345;-39
2021/06/18 05:11:29;;;;;;;9.70;3.45;;;22.80;64.90;;;;;;5017430;28;20425;-37
2021/06/18 05:13:54;;;;;;;7.45;2.72;;;22.80;64.80;;;;;;5016551;28;20030;-39
2021/06/18 05:16:20;;;;;;;3.75;2.05;;;22.90;64.80;;;;;;5017602;28;20026;-38
2021/06/18 05:18:46;;;;;;;7.32;2.80;;;23.00;64.70;;;;;;5016950;28;20022;-39
2021/06/18 05:21:12;;;;;;;4.35;3.22;;;23.00;64.70;;;;;;5017352;28;20037;-38
2021/06/18 05:23:38;;;;;;;4.90;3.08;;;23.10;64.60;;;;;;5017319;28;20022;-38
2021/06/18 05:26:03;;;;;;;7.95;2.45;;;23.10;64.30;;;;;;5017654;28;20096;-41
2021/06/18 05:28:29;;;;;;;5.97;2.65;;;23.20;64.30;;;;;;5016770;28;20438;-39
2021/06/18 05:30:55;;;;;;;7.55;3.00;;;23.20;64.10;;;;;;5017457;28;20030;-39
2021/06/18 05:33:20;;;;;;;4.80;2.33;;;23.20;64.20;;;;;;5016839;28;20064;-39
2021/06/18 05:35:46;;;;;;;3.20;2.10;;;23.30;64.30;;;;;;5016962;28;20398;-39
2021/06/18 05:38:12;;;;;;;7.18;2.80;;;23.30;64.60;;;;;;5016802;28;20030;-39
2021/06/18 05:40:41;;;;;;;2.95;2.10;;;23.40;63.60;;;;;;5016980;28;20045;-39
2021/06/18 05:43:08;;;;;;;5.18;2.72;;;23.40;63.50;;;;;;5016812;28;20026;-40
2021/06/18 05:45:36;;;;;;;3.17;2.38;;;23.50;63.60;;;;;;5017243;28;20299;-38
2021/06/18 05:48:03;;;;;;;4.82;2.75;;;23.50;63.60;;;;;;5016830;28;20030;-38
2021/06/18 05:50:29;;;;;;;6.60;2.92;;;23.50;63.30;;;;;;5017361;28;20088;-39
2021/06/18 05:52:55;;;;;;;3.90;2.58;;;23.60;63.50;;;;;;5016833;28;20033;-39
2021/06/18 05:55:20;;;;;;;6.60;2.70;;;23.60;63.40;;;;;;5015465;28;20029;-39
2021/06/18 05:57:49;;;;;;;12.90;2.92;;;23.70;63.40;;;;;;5016109;28;20034;-39
2021/06/18 06:00:16;;;;;;;3.47;2.45;;;23.80;63.00;;;;;;5017009;28;20314;-38
2021/06/18 06:02:41;;;;;;;3.95;2.40;;;23.80;62.80;;;;;;5016036;28;20030;-39
2021/06/18 06:05:07;;;;;;;2.50;1.80;;;23.80;63.00;;;;;;5016732;28;20032;-39
2021/06/18 06:07:33;;;;;;;8.63;2.67;;;23.80;62.90;;;;;;5015866;28;20425;-40
2021/06/18 06:09:59;;;;;;;4.82;2.67;;;23.80;62.90;;;;;;5016489;28;20033;-40
2021/06/18 06:12:24;;;;;;;3.75;2.42;;;23.80;63.00;;;;;;5016149;28;20418;-39
2021/06/18 06:14:50;;;;;;;3.78;2.60;;;23.80;63.20;;;;;;5016491;28;20084;-38
2021/06/18 06:17:16;;;;;;;8.38;2.42;;;23.90;63.30;;;;;;5016240;28;20037;-39
2021/06/18 06:19:41;;;;;;;5.95;2.38;;;23.90;63.40;;;;;;5016331;28;20046;-39
2021/06/18 06:22:07;;;;;;;4.97;2.75;;;23.90;63.30;;;;;;5016456;28;20037;-39
2021/06/18 06:24:33;;;;;;;4.80;2.97;;;23.90;63.10;;;;;;5015992;28;20030;-40
2021/06/18 06:26:59;;;;;;;6.97;2.55;;;24.00;63.00;;;;;;5016236;28;20117;-39
2021/06/18 06:29:25;;;;;;;3.50;2.22;;;24.00;63.30;;;;;;5016058;28;20064;-39
2021/06/18 06:31:50;;;;;;;3.38;2.53;;;24.00;63.50;;;;;;5015988;28;20038;-39
2021/06/18 06:34:16;;;;;;;8.73;2.67;;;24.00;63.40;;;;;;5015989;28;20418;-39
2021/06/18 06:36:42;;;;;;;9.63;2.90;;;24.10;64.10;;;;;;5016031;28;20034;-39
2021/06/18 06:39:08;;;;;;;4.18;2.50;;;24.10;63.40;;;;;;5016033;28;20029;-39
2021/06/18 06:41:33;;;;;;;5.82;2.72;;;24.20;63.50;;;;;;5016086;28;20033;-38
2021/06/18 06:43:59;;;;;;;6.53;2.42;;;24.30;63.60;;;;;;5011560;28;20033;-39
2021/06/18 06:46:25;;;;;;;4.80;2.42;;;24.30;63.50;;;;;;5015552;28;20048;-39
2021/06/18 06:48:51;;;;;;;5.07;2.63;;;24.40;63.30;;;;;;5015449;28;20318;-39
2021/06/18 06:51:17;;;;;;;8.95;3.58;;;24.40;63.30;;;;;;5015723;28;20326;-39
2021/06/18 06:53:43;;;;;;;8.13;3.10;;;24.50;63.20;;;;;;5014811;28;20040;-39
2021/06/18 06:56:09;;;;;;;6.47;3.20;;;24.60;62.80;;;;;;5015931;28;20034;-38
2021/06/18 06:58:35;;;;;;;3.78;2.58;;;24.60;62.60;;;;;;5014788;28;20022;-38
2021/06/18 07:01:01;;;;;;;6.53;2.88;;;24.70;62.60;;;;;;5015545;28;20084;-39
2021/06/18 07:03:26;;;;;;;10.32;3.42;;;24.70;62.70;;;;;;5014658;28;20065;-40
2021/06/18 07:05:52;;;;;;;4.78;2.63;;;24.80;62.60;;;;;;5015477;28;20061;-40
2021/06/18 07:08:24;;;;;;;7.22;3.17;;;24.80;62.70;;;;;;5014615;28;20088;-40
2021/06/18 07:10:53;;;;;;;12.23;3.28;;;24.90;62.40;;;;;;5015951;28;20049;-39
2021/06/18 07:13:19;;;;;;;4.78;2.40;;;25.00;62.00;;;;;;5014381;28;20045;-40
2021/06/18 07:15:46;;;;;;;6.03;3.33;;;25.00;61.90;;;;;;5015480;28;20041;-40
2021/06/18 07:18:12;;;;;;;4.68;2.40;;;25.10;61.90;;;;;;5015030;28;20034;-39
2021/06/18 07:20:38;;;;;;;6.07;2.90;;;25.10;61.80;;;;;;5015150;28;20046;-40
2021/06/18 07:23:04;;;;;;;4.32;2.60;;;25.20;62.10;;;;;;5014809;28;20033;-39
2021/06/18 07:25:29;;;;;;;5.28;2.65;;;25.20;62.10;;;;;;5015414;28;20445;-40
2021/06/18 07:27:55;;;;;;;13.63;3.33;;;25.20;62.70;;;;;;5015555;28;20034;-40
2021/06/18 07:30:22;;;;;;;3.95;2.97;;;25.30;62.10;;;;;;5015296;28;20426;-40
2021/06/18 07:32:48;;;;;;;12.43;7.45;;;25.30;62.40;;;;;;5014920;28;20030;-40
2021/06/18 07:35:14;;;;;;;11.77;6.75;;;25.40;62.30;;;;;;5014585;28;20071;-40
2021/06/18 07:37:40;;;;;;;10.35;6.93;;;25.40;62.10;;;;;;5016430;28;20033;-41
2021/06/18 07:40:07;;;;;;;11.45;6.18;;;25.50;61.90;;;;;;5019323;28;20029;-40
2021/06/18 07:42:33;;;;;;;5.38;4.50;;;25.50;61.60;;;;;;5018939;28;20080;-41
2021/06/18 07:44:58;;;;;;;7.35;4.32;;;25.50;61.90;;;;;;5018584;28;20029;-40
2021/06/18 07:47:24;;;;;;;5.95;3.83;;;25.60;62.10;;;;;;5018637;28;20057;-40
2021/06/18 07:49:51;;;;;;;4.80;3.13;;;25.60;61.60;;;;;;5018745;28;20041;-42
2021/06/18 07:52:16;;;;;;;4.03;3.33;;;25.60;61.60;;;;;;5018958;28;20410;-40
2021/06/18 07:54:42;;;;;;;6.95;4.03;;;25.60;61.60;;;;;;5018504;28;20039;-41
2021/06/18 07:57:08;;;;;;;7.15;2.80;;;25.60;61.80;;;;;;5018680;28;20058;-40
2021/06/18 07:59:34;;;;;;;10.18;5.43;;;25.60;62.20;;;;;;5018833;28;20029;-40
2021/06/18 08:02:00;;;;;;;12.13;5.38;;;25.60;62.10;;;;;;5018627;28;20120;-40
2021/06/18 08:04:26;;;;;;;5.60;3.17;;;25.70;62.20;;;;;;5018507;28;20061;-41
2021/06/18 08:06:52;;;;;;;3.95;2.75;;;25.70;62.20;;;;;;5018699;28;20314;-39
2021/06/18 08:09:17;;;;;;;4.95;4.10;;;25.70;62.10;;;;;;5018290;28;20029;-40
2021/06/18 08:11:43;;;;;;;11.75;3.42;;;25.80;62.20;;;;;;5018576;28;20046;-41
2021/06/18 08:14:09;;;;;;;5.28;3.30;;;25.90;62.40;;;;;;5018304;28;20025;-40
2021/06/18 08:16:35;;;;;;;8.20;3.63;;;25.90;61.90;;;;;;5018227;28;20414;-40
2021/06/18 08:19:00;;;;;;;7.70;2.90;;;26.00;61.70;;;;;;5018095;28;20402;-40
2021/06/18 08:21:26;;;;;;;6.07;3.10;;;26.00;61.30;;;;;;5033820;28;20168;-38
2021/06/18 08:23:52;;;;;;;3.70;2.75;;;26.10;61.30;;;;;;5017837;28;20037;-38
2021/06/18 08:26:19;;;;;;;6.05;3.03;;;26.10;61.30;;;;;;5018452;28;20034;-38
2021/06/18 08:28:44;;;;;;;11.90;7.70;;;26.20;61.20;;;;;;5018097;28;20022;-39
2021/06/18 08:31:10;;;;;;;9.82;4.97;;;26.20;61.10;;;;;;5017282;28;20033;-38
2021/06/18 08:33:36;;;;;;;8.15;2.72;;;26.30;61.20;;;;;;5017589;28;20432;-38
2021/06/18 08:36:04;;;;;;;5.13;3.28;;;26.30;61.90;;;;;;5018164;28;20073;-40
2021/06/18 08:38:30;;;;;;;6.30;3.17;;;26.30;61.60;;;;;;5017574;28;20030;-40
2021/06/18 08:40:55;;;;;;;6.07;3.88;;;26.30;61.60;;;;;;5018187;28;20032;-40
2021/06/18 08:43:22;;;;;;;4.85;2.67;;;26.30;61.50;;;;;;5016821;28;20022;-40
2021/06/18 08:45:47;;;;;;;7.10;3.58;;;26.30;61.60;;;;;;5015240;28;20099;-40
2021/06/18 08:48:13;;;;;;;10.90;5.18;;;26.40;61.30;;;;;;5017415;28;20029;-41
2021/06/18 08:50:39;;;;;;;7.70;3.40;;;26.40;61.30;;;;;;5016868;28;20048;-41
2021/06/18 08:53:05;;;;;;;5.10;2.90;;;26.50;61.60;;;;;;5017483;28;20112;-40
2021/06/18 08:55:32;;;;;;;7.05;2.78;;;26.60;61.40;;;;;;5017241;28;20042;-41
2021/06/18 08:58:05;;;;;;;5.05;2.38;;;26.70;61.90;;;;;;5017317;28;20036;-38
2021/06/18 09:00:32;;;;;;;6.82;3.88;;;26.70;60.60;;;;;;5017233;28;20041;-38
2021/06/18 09:03:00;;;;;;;6.63;2.58;;;26.80;60.40;;;;;;5017438;28;20033;-39
2021/06/18 09:05:25;;;;;;;8.98;3.38;;;26.90;60.60;;;;;;5017153;28;20048;-38
2021/06/18 09:07:55;;;;;;;7.72;3.17;;;26.90;60.50;;;;;;5017048;28;20417;-39
2021/06/18 09:10:33;;;;;;;6.20;3.13;;;27.00;60.20;;;;;;5017403;28;20045;-38
2021/06/18 09:13:34;;;;;;;6.20;2.70;;;27.00;59.60;;;;;;5017057;28;20404;-38
2021/06/18 09:16:00;;;;;;;4.05;2.40;;;27.00;59.00;;;;;;5017321;28;20037;-39
2021/06/18 09:18:36;;;;;;;10.48;3.55;;;27.00;58.80;;;;;;5016706;28;20053;-39
2021/06/18 09:21:02;;;;;;;4.38;2.60;;;27.10;58.90;;;;;;5015659;28;20406;-38
2021/06/18 09:23:31;;;;;;;3.72;2.92;;;27.10;58.80;;;;;;5016481;28;20053;-38
2021/06/18 09:26:15;;;;;;;6.13;2.70;;;27.10;59.10;;;;;;5017792;28;20361;-38
2021/06/18 09:29:10;;;;;;;3.85;2.90;;;27.10;58.80;;;;;;5016256;28;20057;-37
2021/06/18 09:31:53;;;;;;;6.38;2.83;;;27.10;59.10;;;;;;5017132;28;20383;-38
2021/06/18 09:34:40;;;;;;;4.32;3.20;;;27.10;59.40;;;;;;5016624;28;20041;-38
2021/06/18 09:37:37;;;;;;;3.58;2.85;;;27.20;59.70;;;;;;5016772;28;20038;-40
2021/06/18 09:40:07;;;;;;;5.75;3.03;;;27.20;59.60;;;;;;5015839;28;20042;-38
2021/06/18 09:42:35;;;;;;;7.50;3.50;;;27.20;59.90;;;;;;5016482;28;20033;-38
2021/06/18 09:45:07;;;;;;;5.50;3.50;;;27.30;59.90;;;;;;5016371;28;20061;-38
2021/06/18 09:47:34;;;;;;;10.55;3.40;;;27.40;59.70;;;;;;5016520;28;20033;-39
2021/06/18 09:50:00;;;;;;;7.07;3.13;;;27.40;59.50;;;;;;5016693;28;20036;-39
2021/06/18 09:52:26;;;;;;;8.13;3.40;;;27.50;59.60;;;;;;5016502;28;20101;-38
2021/06/18 09:54:53;;;;;;;6.10;3.22;;;27.50;59.40;;;;;;5016468;28;20033;-38
2021/06/18 09:57:34;;;;;;;5.30;2.60;;;27.60;59.50;;;;;;5016495;28;20038;-38
2021/06/18 10:00:04;;;;;;;3.45;2.65;;;27.70;59.30;;;;;;5016283;28;20030;-39
2021/06/18 10:02:42;;;;;;;6.15;3.80;;;27.70;59.10;;;;;;5016122;28;20430;-39
2021/06/18 10:05:15;;;;;;;7.20;3.97;;;27.70;59.00;;;;;;5015750;28;20045;-39
2021/06/18 10:07:42;;;;;;;6.97;3.08;;;27.70;58.70;;;;;;5016438;28;20022;-38
2021/06/18 10:10:10;;;;;;;6.00;3.13;;;27.70;58.60;;;;;;5016095;28;20083;-39
2021/06/18 10:12:37;;;;;;;10.48;3.72;;;27.80;58.50;;;;;;5015971;28;20116;-38
2021/06/18 10:15:06;;;;;;;5.85;2.95;;;27.80;58.50;;;;;;5016110;28;20030;-38
2021/06/18 10:17:34;;;;;;;5.17;2.77;;;27.80;58.60;;;;;;5015610;28;20033;-39
2021/06/18 10:20:02;;;;;;;6.20;2.90;;;27.80;58.40;;;;;;5015665;28;20294;-39
2021/06/18 10:22:28;;;;;;;10.25;2.97;;;27.90;58.30;;;;;;5016232;28;20030;-39
2021/06/18 10:24:54;;;;;;;4.18;2.67;;;27.90;58.10;;;;;;5015816;28;20034;-38
2021/06/18 10:27:31;;;;;;;9.45;3.05;;;28.00;57.80;;;;;;5015903;28;20085;-38
2021/06/18 10:29:58;;;;;;;7.68;3.67;;;28.00;57.60;;;;;;5015958;28;20057;-39
2021/06/18 10:32:32;;;;;;;7.28;4.20;;;28.10;57.90;;;;;;5015574;28;20307;-38
2021/06/18 10:35:00;;;;;;;5.72;3.15;;;28.20;57.60;;;;;;5015393;28;20437;-39
2021/06/18 10:37:28;;;;;;;3.30;2.63;;;28.20;57.80;;;;;;5015569;28;20113;-38
2021/06/18 10:40:04;;;;;;;9.20;3.08;;;28.30;57.90;;;;;;5015945;28;20328;-38
2021/06/18 10:42:31;;;;;;;5.18;2.83;;;28.40;57.40;;;;;;5015151;28;20426;-39
2021/06/18 10:44:56;;;;;;;4.15;2.58;;;28.40;57.10;;;;;;5015668;28;20050;-38
2021/06/18 10:47:22;;;;;;;5.93;2.70;;;28.50;57.00;;;;;;5015794;28;20046;-40
2021/06/18 10:49:48;;;;;;;10.60;3.28;;;28.50;57.10;;;;;;5016159;28;20057;-41
2021/06/18 10:52:21;;;;;;;3.72;3.15;;;28.60;57.20;;;;;;5015968;28;20065;-40
2021/06/18 10:54:52;;;;;;;6.30;3.72;;;28.70;56.90;;;;;;5015487;28;20113;-41
2021/06/18 10:57:21;;;;;;;6.43;3.20;;;28.70;57.10;;;;;;5015660;28;20091;-40
2021/06/18 10:59:48;;;;;;;8.18;2.88;;;28.70;56.70;;;;;;5015674;28;20026;-40
2021/06/18 11:02:30;;;;;;;7.20;3.30;;;28.70;57.00;;;;;;5015634;28;20048;-40
2021/06/18 11:05:14;;;;;;;8.30;3.60;;;28.70;56.80;;;;;;5015017;28;20038;-40
2021/06/18 11:07:41;;;;;;;6.28;3.10;;;28.70;56.70;;;;;;5015214;28;20129;-41
2021/06/18 11:10:16;;;;;;;8.20;2.95;;;28.70;56.60;;;;;;5015573;28;20022;-41
2021/06/18 11:12:58;;;;;;;6.70;2.47;;;28.70;56.70;;;;;;5014861;28;20033;-43
2021/06/18 11:15:24;;;;;;;3.63;2.55;;;28.70;56.60;;;;;;5011859;28;20493;-42
2021/06/18 11:17:59;;;;;;;4.82;3.03;;;28.60;56.40;;;;;;5014032;28;20434;-40
2021/06/18 11:20:34;;;;;;;6.95;2.95;;;28.60;56.70;;;;;;5014649;28;20104;-39
2021/06/18 11:23:14;;;;;;;9.18;4.30;;;28.60;57.00;;;;;;5015166;28;20089;-39
2021/06/18 11:25:40;;;;;;;10.23;6.18;;;28.60;56.90;;;;;;5015383;28;20349;-40
2021/06/18 11:28:21;;;;;;;8.45;5.30;;;28.60;57.00;;;;;;5015249;28;20375;-39
2021/06/18 11:31:06;;;;;;;14.80;4.25;;;28.60;57.20;;;;;;5014779;28;20088;-40
2021/06/18 11:36:09;;;;;;;4.40;2.58;;;28.60;57.60;;;;;;5015073;28;20085;-40
2021/06/18 11:38:36;;;;;;;4.25;2.60;;;28.60;57.80;;;;;;5014764;28;20014;-40
2021/06/18 11:41:05;;;;;;;9.98;3.25;;;28.60;58.00;;;;;;5015028;28;20060;-39
2021/06/18 11:43:31;;;;;;;6.00;3.40;;;28.60;57.70;;;;;;5014709;28;20418;-42
2021/06/18 11:46:01;;;;;;;8.30;3.15;;;28.50;57.90;;;;;;5014981;28;20042;-40
2021/06/18 11:48:27;;;;;;;3.97;2.43;;;28.50;58.10;;;;;;5014768;28;20034;-44
2021/06/18 11:50:53;;;;;;;6.43;3.08;;;28.50;58.20;;;;;;5015155;28;20271;-42
2021/06/18 11:53:21;;;;;;;6.82;4.05;;;28.60;58.40;;;;;;5014554;28;20030;-41
2021/06/18 11:56:02;;;;;;;4.78;3.10;;;28.70;57.90;;;;;;5014866;28;20310;-41
2021/06/18 11:58:42;;;;;;;6.47;3.10;;;28.80;58.00;;;;;;5014494;28;20033;-40
2021/06/18 12:01:21;;;;;;;7.90;2.50;;;28.90;57.70;;;;;;5014703;28;20029;-40
2021/06/18 12:03:52;;;;;;;4.05;2.50;;;29.10;57.50;;;;;;5014511;28;20337;-40
2021/06/18 12:06:29;;;;;;;8.88;3.00;;;29.20;57.20;;;;;;5014739;28;20081;-43
2021/06/18 12:09:12;;;;;;;4.97;3.33;;;29.30;56.80;;;;;;5014724;28;20033;-41
2021/06/18 12:11:40;;;;;;;6.05;3.30;;;29.40;56.80;;;;;;5014545;28;20149;-42
2021/06/18 12:14:07;;;;;;;8.13;3.42;;;29.50;56.40;;;;;;5014965;28;20041;-41
2021/06/18 12:16:39;;;;;;;7.28;4.45;;;29.70;56.40;;;;;;5014435;28;20023;-41
2021/06/18 12:19:23;;;;;;;10.85;3.95;;;29.80;55.80;;;;;;5014650;28;20410;-42
2021/06/18 12:22:11;;;;;;;5.57;3.70;;;30.00;55.50;;;;;;5014598;28;20034;-40
2021/06/18 12:24:41;;;;;;;5.15;3.60;;;30.10;55.20;;;;;;5017678;28;20083;-41
2021/06/18 12:27:10;;;;;;;8.30;3.88;;;30.20;54.80;;;;;;5017857;28;20042;-41
2021/06/18 12:29:40;;;;;;;9.13;4.25;;;30.30;54.60;;;;;;5018362;28;20029;-40
2021/06/18 12:32:07;;;;;;;7.35;3.72;;;30.50;54.40;;;;;;5018262;28;20413;-41
2021/06/18 12:34:33;;;;;;;12.52;3.88;;;30.70;54.00;;;;;;5018275;28;20030;-40
2021/06/18 12:37:08;;;;;;;5.70;3.33;;;30.90;53.50;;;;;;5017751;28;20432;-40
2021/06/18 12:39:55;;;;;;;14.93;3.38;;;31.00;53.10;;;;;;5017938;28;20030;-41
2021/06/18 12:42:38;;;;;;;7.90;3.10;;;31.20;52.40;;;;;;5017787;28;20030;-42
2021/06/18 12:45:06;;;;;;;6.47;3.92;;;31.30;52.40;;;;;;5017773;28;20025;-39
2021/06/18 12:47:32;;;;;;;5.55;3.05;;;31.50;52.30;;;;;;5017782;28;20066;-41
2021/06/18 12:49:57;;;;;;;5.35;3.33;;;31.60;52.00;;;;;;5017676;28;20112;-41
2021/06/18 12:52:23;;;;;;;7.18;3.08;;;31.70;51.70;;;;;;5017435;28;20030;-40
2021/06/18 12:54:49;;;;;;;11.32;3.33;;;31.90;51.20;;;;;;5017637;28;20099;-41
2021/06/18 12:57:28;;;;;;;6.45;4.00;;;31.90;51.00;;;;;;5017113;28;20060;-40